Time;durP1;ratioP1;P1;durP2;ratioP2;P2;SDS_P1;SDS_P2;PMS_P1;PMS_P2;Temp;Humidity;BMP_temperature;BMP_pressure;BME280_temperature;BME280_humidity;BME280_pressure;Samples;Min_cycle;Max_cycle;Signal;HPM_P1;HPM_P2
2022/05/06 00:02:06;;;;;;;28.08;17.77;;;;;;;8.77;100.00;102515.69;4853549;29;20041;-79
2022/05/06 00:04:35;;;;;;;24.20;17.70;;;;;;;8.75;100.00;102519.06;4846383;29;20061;-78
2022/05/06 00:07:04;;;;;;;27.08;19.92;;;;;;;8.72;100.00;102511.09;4859235;29;20254;-78
2022/05/06 00:09:32;;;;;;;28.42;20.02;;;;;;;8.70;100.00;102518.91;4850899;29;20054;-79
2022/05/06 00:12:00;;;;;;;24.30;17.85;;;;;;;8.69;100.00;102524.09;4826356;29;20095;-78
2022/05/06 00:14:29;;;;;;;28.10;19.20;;;;;;;8.68;100.00;102522.34;4832543;29;20869;-78
2022/05/06 00:16:57;;;;;;;29.25;20.98;;;;;;;8.66;100.00;102523.97;4829590;29;20054;-77
2022/05/06 00:19:25;;;;;;;27.60;19.88;;;;;;;8.66;100.00;102524.91;4862256;29;20060;-78
2022/05/06 00:21:54;;;;;;;29.52;20.73;;;;;;;8.64;100.00;102523.03;4830783;29;20061;-79
2022/05/06 00:24:22;;;;;;;30.08;19.98;;;;;;;8.62;100.00;102533.50;4848367;29;20053;-79
2022/05/06 00:26:51;;;;;;;30.73;19.10;;;;;;;8.61;100.00;102534.31;4824360;29;20708;-79
2022/05/06 00:29:19;;;;;;;22.55;17.25;;;;;;;8.58;100.00;102524.59;4816635;29;20535;-79
2022/05/06 00:31:52;;;;;;;22.73;17.45;;;;;;;8.58;100.00;102532.50;4830500;29;20260;-79
2022/05/06 00:34:20;;;;;;;25.33;16.58;;;;;;;8.56;100.00;102528.91;4851700;29;20041;-79
2022/05/06 00:36:49;;;;;;;23.70;17.48;;;;;;;8.54;100.00;102527.97;4844718;29;20057;-79
2022/05/06 00:39:18;;;;;;;26.60;17.80;;;;;;;8.52;100.00;102526.09;4855816;29;20449;-78
2022/05/06 00:41:47;;;;;;;23.00;17.27;;;;;;;8.50;100.00;102518.16;4833825;29;20053;-79
2022/05/06 00:44:15;;;;;;;27.15;19.13;;;;;;;8.50;100.00;102535.66;4846740;29;20069;-78
2022/05/06 00:46:44;;;;;;;22.17;17.88;;;;;;;8.49;100.00;102526.00;4838449;29;20397;-79
2022/05/06 00:49:14;;;;;;;25.25;17.83;;;;;;;8.47;100.00;102527.63;4848649;29;20042;-79
2022/05/06 00:51:46;;;;;;;28.08;19.30;;;;;;;8.46;100.00;102529.38;4837831;29;20058;-79
2022/05/06 00:54:15;;;;;;;28.33;18.33;;;;;;;8.43;100.00;102517.84;4831074;29;20042;-79
2022/05/06 00:56:52;;;;;;;22.88;17.67;;;;;;;8.42;100.00;102532.72;4837239;29;20057;-78
2022/05/06 00:59:21;;;;;;;28.80;18.83;;;;;;;8.42;100.00;102526.59;4813833;29;20053;-78
2022/05/06 01:01:49;;;;;;;26.27;18.60;;;;;;;8.44;100.00;102538.94;4833731;29;20053;-78
2022/05/06 01:04:19;;;;;;;;;;;;;;;8.43;100.00;102520.47;4833459;23;1181769;-79
2022/05/06 01:06:49;;;;;;;27.75;20.15;;;;;;;8.40;100.00;102519.50;4861617;29;20138;-79
2022/05/06 01:09:18;;;;;;;27.13;20.30;;;;;;;8.39;100.00;102525.59;4873860;29;20060;-78
2022/05/06 01:11:54;;;;;;;27.92;19.42;;;;;;;8.38;100.00;102530.78;4873246;29;20617;-78
2022/05/06 01:14:35;;;;;;;27.85;18.63;;;;;;;8.36;100.00;102527.22;4870332;29;20521;-79
2022/05/06 01:17:16;;;;;;;30.90;18.55;;;;;;;8.37;100.00;102523.72;4872969;29;20041;-79
2022/05/06 01:19:47;;;;;;;27.92;19.10;;;;;;;8.35;100.00;102526.28;4870767;29;20269;-79
2022/05/06 01:22:17;;;;;;;29.95;19.38;;;;;;;8.34;100.00;102523.63;4860957;29;20501;-80
2022/05/06 01:24:46;;;;;;;28.55;20.90;;;;;;;8.33;100.00;102520.09;4887250;29;20247;-79
2022/05/06 01:27:23;;;;;;;29.58;19.27;;;;;;;8.32;100.00;102522.69;4873492;29;20049;-78
2022/05/06 01:29:51;;;;;;;32.95;20.40;;;;;;;8.32;100.00;102527.94;4847376;29;20079;-78
2022/05/06 01:32:22;;;;;;;29.80;20.50;;;;;;;8.31;100.00;102524.38;4867914;29;20055;-78
2022/05/06 01:34:52;;;;;;;38.35;21.77;;;;;;;8.27;100.00;102516.34;4898660;29;20057;-78
2022/05/06 01:37:22;;;;;;;32.28;20.65;;;;;;;8.22;100.00;102513.50;4879677;29;20040;-78
2022/05/06 01:39:55;;;;;;;29.73;20.45;;;;;;;8.20;100.00;102516.09;4876679;29;20048;-78
2022/05/06 01:42:27;;;;;;;29.02;19.98;;;;;;;8.19;100.00;102513.41;4893303;29;20036;-77
2022/05/06 01:45:10;;;;;;;31.92;20.50;;;;;;;8.16;100.00;102527.28;4859502;29;20494;-78
2022/05/06 01:47:42;;;;;;;31.60;19.92;;;;;;;8.14;100.00;102528.97;4889479;29;20049;-79
2022/05/06 01:50:17;;;;;;;25.48;18.33;;;;;;;8.12;100.00;102528.00;4866046;29;20498;-79
2022/05/06 01:52:50;;;;;;;31.70;19.40;;;;;;;8.10;100.00;102527.06;4859916;29;20060;-79
2022/05/06 01:55:19;;;;;;;27.75;19.73;;;;;;;8.10;100.00;102531.41;4880590;29;20064;-78
2022/05/06 01:57:59;;;;;;;31.77;19.20;;;;;;;8.09;100.00;102525.28;4894035;29;20051;-79
2022/05/06 02:00:30;;;;;;;30.45;20.25;;;;;;;8.06;100.00;102519.91;4849455;29;20033;-79
2022/05/06 02:02:59;;;;;;;30.40;20.30;;;;;;;8.07;100.00;102518.16;4869204;29;20050;-79
2022/05/06 02:05:36;;;;;;;32.13;20.35;;;;;;;8.07;100.00;102528.66;4867236;29;20045;-78
2022/05/06 02:08:05;;;;;;;28.45;19.95;;;;;;;8.06;100.00;102517.28;4859005;29;20045;-79
2022/05/06 02:10:35;;;;;;;28.20;20.38;;;;;;;8.07;100.00;102529.59;4861407;29;20506;-79
2022/05/06 02:13:06;;;;;;;28.17;19.17;;;;;;;8.05;100.00;102525.97;4846076;29;20053;-79
2022/05/06 02:15:47;;;;;;;28.13;19.92;;;;;;;8.04;100.00;102524.19;4837233;29;20564;-78
2022/05/06 02:18:33;;;;;;;29.20;18.95;;;;;;;8.02;100.00;102522.34;4874233;29;20056;-79
2022/05/06 02:21:27;;;;;;;30.77;21.38;;;;;;;8.02;100.00;102531.13;4847903;29;20045;-80
2022/05/06 02:24:16;;;;;;;29.95;20.90;;;;;;;8.00;100.00;102532.78;4825638;29;20060;-78
2022/05/06 02:27:03;;;;;;;29.92;20.02;;;;;;;7.98;100.00;102526.56;4864731;29;20546;-79
2022/05/06 02:29:32;;;;;;;31.80;20.35;;;;;;;7.98;100.00;102534.44;4854350;29;20048;-79
2022/05/06 02:34:53;;;;;;;35.58;21.08;;;;;;;7.97;100.00;102528.28;4838499;29;22381;-79
2022/05/06 02:37:21;;;;;;;26.55;19.25;;;;;;;7.97;100.00;102519.53;4852057;29;20048;-79
2022/05/06 02:39:53;;;;;;;32.17;20.55;;;;;;;7.94;100.00;102517.69;4839571;29;20336;-79
2022/05/06 02:42:25;;;;;;;29.50;21.25;;;;;;;7.91;100.00;102524.53;4859240;29;20052;-79
2022/05/06 02:44:54;;;;;;;34.13;20.05;;;;;;;7.88;100.00;102527.94;4861727;29;20045;-79
2022/05/06 02:47:23;;;;;;;28.23;19.48;;;;;;;7.86;100.00;102528.69;4830575;29;20053;-78
2022/05/06 02:49:52;;;;;;;27.42;18.88;;;;;;;7.83;100.00;102520.72;4851502;29;21322;-79
2022/05/06 02:52:22;;;;;;;25.05;18.17;;;;;;;7.79;100.00;102523.19;4879225;29;20049;-78
2022/05/06 02:54:52;;;;;;;26.98;19.00;;;;;;;7.78;100.00;102521.38;4857654;29;20037;-79
2022/05/06 02:57:22;;;;;;;31.95;19.42;;;;;;;7.75;100.00;102521.28;4872859;29;20414;-79
2022/05/06 02:59:51;;;;;;;27.55;18.63;;;;;;;7.74;100.00;102523.84;4867023;29;20268;-80
2022/05/06 03:02:24;;;;;;;30.98;18.92;;;;;;;7.74;100.00;102531.69;4822767;29;20080;-78
2022/05/06 03:04:53;;;;;;;29.48;18.70;;;;;;;7.71;100.00;102519.38;4835280;29;20068;-79
2022/05/06 03:07:23;;;;;;;23.85;17.77;;;;;;;7.70;100.00;102524.53;4845416;29;20075;-78
2022/05/06 03:09:53;;;;;;;23.92;17.13;;;;;;;7.68;100.00;102513.97;4856837;29;20040;-79
2022/05/06 03:12:29;;;;;;;19.88;16.30;;;;;;;7.67;100.00;102527.03;4860694;29;20056;-79
2022/05/06 03:15:05;;;;;;;24.65;16.83;;;;;;;7.65;100.00;102518.19;4856747;29;20048;-79
2022/05/06 03:17:42;;;;;;;23.05;16.38;;;;;;;7.64;100.00;102517.31;4832529;29;20033;-78
2022/05/06 03:20:12;;;;;;;18.33;14.90;;;;;;;7.63;100.00;102515.50;4844482;29;20049;-79
2022/05/06 03:22:42;;;;;;;22.05;15.63;;;;;;;7.63;100.00;102515.50;4848833;29;20051;-79
2022/05/06 03:25:12;;;;;;;20.25;14.48;;;;;;;7.62;100.00;102518.97;4847097;29;20053;-79
2022/05/06 03:27:59;;;;;;;18.58;14.63;;;;;;;7.63;100.00;102519.84;4858489;29;20060;-78
2022/05/06 03:30:29;;;;;;;18.08;13.32;;;;;;;7.63;100.00;102517.25;4869738;29;20048;-78
2022/05/06 03:33:14;;;;;;;21.30;14.73;;;;;;;7.64;100.00;102522.56;4845002;29;20053;-79
2022/05/06 03:35:43;;;;;;;;;;;;;;;7.62;100.00;102513.72;4841567;29;20550;-78
2022/05/06 03:38:12;;;;;;;20.45;14.43;;;;;;;7.61;100.00;102519.78;4860194;29;20302;-80
2022/05/06 03:40:44;;;;;;;18.15;13.57;;;;;;;7.60;100.00;102515.41;4841751;29;20056;-78
2022/05/06 03:43:12;;;;;;;21.08;14.30;;;;;;;7.59;100.00;102516.22;4860261;29;20853;-79
2022/05/06 03:45:42;;;;;;;18.65;14.38;;;;;;;7.60;100.00;102511.03;4836915;29;20115;-78
2022/05/06 03:48:11;;;;;;;17.58;12.60;;;;;;;7.64;100.00;102512.06;4836136;29;20060;-79
2022/05/06 03:53:38;;;;;;;18.25;12.48;;;;;;;7.69;100.00;102510.50;4836713;29;20045;-79
2022/05/06 03:56:07;;;;;;;13.88;11.15;;;;;;;7.73;100.00;102512.44;4842036;29;20045;-78
2022/05/06 03:58:41;;;;;;;14.77;10.52;;;;;;;7.78;100.00;102516.13;4842491;29;20395;-78
2022/05/06 04:01:13;;;;;;;15.05;11.10;;;;;;;7.84;100.00;102517.22;4836980;29;20053;-79
2022/05/06 04:03:47;;;;;;;16.50;12.77;;;;;;;7.88;100.00;102506.94;4835053;29;20048;-79
2022/05/06 04:06:23;;;;;;;22.67;15.10;;;;;;;7.92;100.00;102505.31;4856496;29;20052;-79
2022/05/06 04:08:55;;;;;;;18.73;13.45;;;;;;;7.98;100.00;102508.19;4850717;29;20063;-79
2022/05/06 04:11:26;;;;;;;25.58;17.13;;;;;;;8.03;100.00;102504.00;4857603;29;20056;-79
2022/05/06 04:13:59;;;;;;;25.85;16.30;;;;;;;8.08;100.00;102510.34;4859222;29;20032;-79
2022/05/06 04:16:30;;;;;;;25.45;17.00;;;;;;;8.13;100.00;102516.69;4851679;29;20049;-79
2022/05/06 04:19:02;;;;;;;23.33;16.17;;;;;;;8.18;100.00;102514.22;4809687;29;23116;-79
2022/05/06 04:24:22;;;;;;;30.00;19.63;;;;;;;8.26;100.00;102509.28;4838995;29;20056;-80
2022/05/06 04:26:51;;;;;;;33.08;20.52;;;;;;;8.28;100.00;102507.59;4856306;29;20049;-79
2022/05/06 04:29:19;;;;;;;30.92;19.40;;;;;;;8.31;100.00;102510.38;4858895;29;20076;-79
2022/05/06 04:31:52;;;;;;;31.38;20.35;;;;;;;8.34;100.00;102506.13;4844350;29;20049;-79
2022/05/06 04:34:21;;;;;;;27.70;18.50;;;;;;;8.37;100.00;102506.25;4879115;29;20379;-79
2022/05/06 04:36:49;;;;;;;29.70;20.17;;;;;;;8.41;100.00;102504.63;4821518;29;20176;-78
2022/05/06 04:39:19;;;;;;;36.70;23.92;;;;;;;8.45;100.00;102503.03;4854767;29;20048;-79
2022/05/06 04:41:53;;;;;;;41.83;25.85;;;;;;;8.47;100.00;102510.16;4840007;29;20057;-79
2022/05/06 04:44:32;;;;;;;43.78;26.77;;;;;;;8.51;100.00;102505.94;4858493;29;20053;-79
2022/05/06 04:47:00;;;;;;;48.33;27.48;;;;;;;8.53;100.00;102502.50;4851731;29;20279;-78
2022/05/06 04:49:30;;;;;;;40.10;25.23;;;;;;;8.57;100.00;102500.91;4827745;29;20057;-78
2022/05/06 04:51:59;;;;;;;51.42;28.42;;;;;;;8.58;100.00;102508.84;4836245;29;20065;-79
2022/05/06 04:54:28;;;;;;;37.65;23.92;;;;;;;8.60;100.00;102516.78;4856852;29;20048;-79
2022/05/06 04:56:58;;;;;;;37.55;22.45;;;;;;;8.64;100.00;102513.44;4841644;29;20237;-79
2022/05/06 04:59:33;;;;;;;40.85;23.67;;;;;;;8.67;100.00;102510.91;4871998;29;20537;-80
2022/05/06 05:02:02;;;;;;;48.88;23.15;;;;;;;8.70;100.00;102512.78;4837672;29;20427;-78
2022/05/06 05:04:31;;;;;;;38.53;23.70;;;;;;;8.73;100.00;102515.50;4852599;29;20059;-79
2022/05/06 05:07:06;;;;;;;36.47;22.85;;;;;;;8.76;100.00;102516.50;4838889;29;20257;-77
2022/05/06 05:09:39;;;;;;;35.40;20.92;;;;;;;8.81;100.00;102519.31;4827135;29;20045;-78
2022/05/06 05:12:09;;;;;;;35.33;22.77;;;;;;;8.85;100.00;102521.22;4858700;29;20060;-78
2022/05/06 05:14:44;;;;;;;36.65;22.65;;;;;;;8.89;100.00;102520.50;4857894;29;20045;-78
2022/05/06 05:17:19;;;;;;;31.27;20.08;;;;;;;8.93;100.00;102525.00;4860147;29;20072;-79
2022/05/06 05:19:51;;;;;;;34.40;21.70;;;;;;;8.94;100.00;102528.53;4848466;29;20041;-78
2022/05/06 05:22:21;;;;;;;34.35;21.60;;;;;;;8.97;100.00;102531.28;4811352;29;20548;-78
2022/05/06 05:24:52;;;;;;;38.97;22.60;;;;;;;9.00;100.00;102536.66;4835481;29;20576;-78
2022/05/06 05:27:20;;;;;;;38.58;22.88;;;;;;;9.04;100.00;102542.94;4844105;29;20056;-79
2022/05/06 05:29:49;;;;;;;40.25;23.35;;;;;;;9.04;100.00;102542.94;4871212;29;20617;-78
2022/05/06 05:32:21;;;;;;;39.45;22.65;;;;;;;9.05;100.00;102545.59;4843280;29;20064;-78
2022/05/06 05:34:49;;;;;;;36.15;23.00;;;;;;;9.09;100.00;102544.91;4851669;29;20045;-78
2022/05/06 05:37:22;;;;;;;39.55;22.45;;;;;;;9.14;100.00;102531.91;4840068;29;20068;-78
2022/05/06 05:39:53;;;;;;;31.52;20.55;;;;;;;9.22;100.00;102540.94;4854932;29;20045;-78
2022/05/06 05:42:24;;;;;;;30.33;20.85;;;;;;;9.34;100.00;102541.41;4830071;29;20033;-79
2022/05/06 05:50:37;;;;;;;39.15;24.52;;;;;;;9.90;100.00;102528.38;4849196;29;20029;-80
2022/05/06 05:53:08;;;;;;;38.00;22.95;;;;;;;10.08;100.00;102525.44;4822903;29;20067;-78
2022/05/06 05:55:43;;;;;;;40.13;23.77;;;;;;;10.17;100.00;102521.31;4881847;29;20422;-79
2022/05/06 05:58:15;;;;;;;42.67;25.15;;;;;;;10.19;100.00;102524.88;4846431;29;20045;-79
2022/05/06 06:00:46;;;;;;;;;;;;;;;10.19;100.00;102524.88;4869415;29;20037;-78
2022/05/06 06:03:15;;;;;;;51.28;30.60;;;;;;;10.20;100.00;102524.06;4858364;29;19930;-78
2022/05/06 06:05:45;;;;;;;41.70;27.15;;;;;;;10.17;100.00;102516.03;4849738;29;20045;-78
2022/05/06 06:08:14;;;;;;;43.00;27.42;;;;;;;10.16;100.00;102523.06;4876305;29;20404;-79
2022/05/06 06:10:44;;;;;;;42.90;27.50;;;;;;;10.14;100.00;102530.03;4834450;29;20045;-78
2022/05/06 06:13:17;;;;;;;44.38;27.77;;;;;;;10.08;100.00;102530.72;4845684;29;20045;-78
2022/05/06 06:15:49;;;;;;;45.97;29.27;;;;;;;10.08;100.00;102533.34;4873241;29;20653;-79
2022/05/06 06:18:26;;;;;;;41.17;27.20;;;;;;;10.08;100.00;102530.72;4876330;29;20052;-79
2022/05/06 06:20:57;;;;;;;40.28;26.55;;;;;;;10.10;100.00;102530.78;4855097;29;20647;-78
2022/05/06 06:23:30;;;;;;;40.03;25.55;;;;;;;10.13;100.00;102539.66;4863781;29;20052;-79
2022/05/06 06:26:00;;;;;;;35.58;24.88;;;;;;;10.17;100.00;102534.47;4841329;29;20207;-79
2022/05/06 06:28:30;;;;;;;33.83;23.08;;;;;;;10.19;100.00;102535.41;4846877;29;20037;-78
2022/05/06 06:31:01;;;;;;;36.20;24.45;;;;;;;10.22;100.00;102532.91;4815215;29;20426;-78
2022/05/06 06:33:37;;;;;;;35.22;25.30;;;;;;;10.24;100.00;102529.44;4862624;29;20060;-79
2022/05/06 06:36:10;;;;;;;29.27;22.42;;;;;;;10.27;100.00;102548.00;4862131;29;20049;-78
2022/05/06 06:38:39;;;;;;;29.92;22.75;;;;;;;10.32;100.00;102545.53;4862535;29;20041;-78
2022/05/06 06:41:09;;;;;;;27.60;20.73;;;;;;;10.35;100.00;102548.28;4822838;29;20069;-79
2022/05/06 06:43:42;;;;;;;29.38;22.77;;;;;;;10.42;100.00;102558.16;4874047;29;20064;-77
2022/05/06 06:46:37;;;;;;;31.17;22.98;;;;;;;10.49;100.00;102557.53;4875547;29;20057;-79
2022/05/06 06:49:26;;;;;;;31.30;22.60;;;;;;;10.56;100.00;102552.44;4862210;29;20061;-80
2022/05/06 06:52:15;;;;;;;32.75;23.35;;;;;;;10.59;100.00;102565.72;4816509;29;20064;-77
2022/05/06 06:54:43;;;;;;;32.35;24.08;;;;;;;10.65;100.00;102558.88;4871834;29;20029;-79
2022/05/06 06:57:11;;;;;;;30.38;22.63;;;;;;;10.73;100.00;102561.72;4823699;29;20045;-79
2022/05/06 06:59:40;;;;;;;32.85;23.90;;;;;;;10.80;100.00;102560.19;4856970;29;20052;-80
2022/05/06 07:02:09;;;;;;;38.10;25.80;;;;;;;10.86;100.00;102557.72;4859738;29;20406;-79
2022/05/06 07:04:37;;;;;;;36.20;24.90;;;;;;;10.93;100.00;102559.69;4858116;29;20052;-78
2022/05/06 07:12:40;;;;;;;38.03;24.77;;;;;;;11.30;100.00;102566.00;4838116;29;20037;-79
2022/05/06 07:15:09;;;;;;;39.25;27.70;;;;;;;11.60;100.00;102568.56;4874942;29;20057;-80
2022/05/06 07:17:37;;;;;;;34.70;25.80;;;;;;;11.87;100.00;102568.41;4873127;29;20057;-78
2022/05/06 07:20:06;;;;;;;40.15;25.70;;;;;;;12.12;100.00;102565.50;4855632;29;20057;-78
2022/05/06 07:22:35;;;;;;;36.83;27.90;;;;;;;12.31;100.00;102569.50;4851741;29;20116;-78
2022/05/06 07:25:05;;;;;;;35.72;28.63;;;;;;;12.40;100.00;102561.75;4835002;29;20371;-78
2022/05/06 07:27:35;;;;;;;33.85;26.92;;;;;;;12.57;100.00;102560.41;4871260;29;20064;-78
2022/05/06 07:30:04;;;;;;;36.47;27.27;;;;;;;12.71;100.00;102555.41;4849813;29;20053;-78
2022/05/06 07:32:33;;;;;;;35.47;27.25;;;;;;;12.82;100.00;102550.34;4882431;29;20297;-78
2022/05/06 07:35:01;;;;;;;37.55;27.95;;;;;;;12.94;100.00;102549.72;4848698;29;20045;-78
2022/05/06 07:37:33;;;;;;;36.40;27.17;;;;;;;13.02;100.00;102556.03;4858177;29;20362;-79
2022/05/06 07:40:04;;;;;;;34.20;26.65;;;;;;;13.07;100.00;102568.50;4849329;29;20483;-80
2022/05/06 07:42:34;;;;;;;;;;;;;;;12.99;100.00;102566.59;4877745;29;20041;-77
2022/05/06 07:45:03;;;;;;;39.13;28.20;;;;;;;12.91;100.00;102570.81;4843218;29;19924;-78
2022/05/06 07:47:32;;;;;;;36.08;26.80;;;;;;;12.81;100.00;102583.84;4867055;29;20293;-79
2022/05/06 07:50:20;;;;;;;35.85;25.00;;;;;;;12.74;100.00;102578.38;4833337;29;20053;-78
2022/05/06 07:52:50;;;;;;;35.47;25.85;;;;;;;12.69;100.00;102575.66;4866462;29;20048;-78
2022/05/06 07:55:19;;;;;;;35.08;25.77;;;;;;;12.65;100.00;102573.81;4874122;29;20045;-78
2022/05/06 07:57:48;;;;;;;39.25;26.50;;;;;;;12.58;100.00;102575.41;4853044;29;20173;-79
2022/05/06 08:00:23;;;;;;;35.65;26.00;;;;;;;12.54;100.00;102575.31;4842315;29;20049;-78
2022/05/06 08:05:39;;;;;;;33.72;24.40;;;;;;;12.52;100.00;102583.19;4844754;29;20061;-79
2022/05/06 08:08:07;;;;;;;35.22;24.77;;;;;;;12.58;100.00;102574.50;4843776;29;20049;-79
2022/05/06 08:10:36;;;;;;;34.58;24.30;;;;;;;12.61;100.00;102569.31;4851977;29;20045;-78
2022/05/06 08:13:06;;;;;;;33.72;24.75;;;;;;;12.66;100.00;102562.34;4864808;29;20045;-78
2022/05/06 08:15:34;;;;;;;32.00;24.25;;;;;;;12.75;100.00;102561.66;4864858;29;20041;-78
2022/05/06 08:18:03;;;;;;;32.05;23.02;;;;;;;12.85;100.00;102566.28;4863001;29;20033;-79
2022/05/06 08:20:32;;;;;;;26.52;22.23;;;;;;;12.96;100.00;102570.03;4839377;29;20296;-79
2022/05/06 08:23:03;;;;;;;28.17;20.58;;;;;;;13.01;100.00;102572.81;4825805;29;20049;-79
2022/05/06 08:25:32;;;;;;;28.08;20.73;;;;;;;13.06;100.00;102566.75;4861653;29;21052;-78
2022/05/06 08:28:07;;;;;;;27.58;20.95;;;;;;;13.25;100.00;102557.41;4847785;29;20052;-79
2022/05/06 08:30:37;;;;;;;26.10;20.98;;;;;;;13.51;100.00;102554.38;4835129;29;20061;-78
2022/05/06 08:33:06;;;;;;;23.80;19.88;;;;;;;13.69;100.00;102559.13;4842258;29;20037;-78
2022/05/06 08:35:34;;;;;;;22.30;19.02;;;;;;;13.82;100.00;102560.25;4842933;29;20045;-80
2022/05/06 08:38:03;;;;;;;22.15;18.50;;;;;;;13.91;100.00;102555.06;4855901;29;20061;-80
2022/05/06 08:40:35;;;;;;;21.55;17.42;;;;;;;13.98;100.00;102550.78;4861582;29;20060;-79
2022/05/06 08:43:04;;;;;;;21.48;17.58;;;;;;;14.06;100.00;102556.19;4854019;29;20065;-78
2022/05/06 08:51:13;;;;;;;21.25;17.30;;;;;;;14.53;100.00;102551.59;4812907;29;20057;-79
2022/05/06 08:53:45;;;;;;;18.88;15.15;;;;;;;14.57;100.00;102560.53;4840555;29;20064;-80
2022/05/06 08:56:13;;;;;;;17.48;15.57;;;;;;;14.61;100.00;102549.09;4847240;29;20052;-79
2022/05/06 08:58:42;;;;;;;17.77;14.85;;;;;;;14.67;100.00;102554.50;4856937;29;20041;-79
2022/05/06 09:01:13;;;;;;;17.08;15.13;;;;;;;14.73;100.00;102546.59;4842427;29;20065;-79
2022/05/06 09:03:48;;;;;;;16.60;13.75;;;;;;;14.78;100.00;102544.91;4850502;29;20060;-78
2022/05/06 09:06:20;;;;;;;17.13;13.65;;;;;;;14.81;100.00;102550.25;4836813;29;20730;-78
2022/05/06 09:08:50;;;;;;;15.75;14.13;;;;;;;14.78;100.00;102544.91;4849440;29;20037;-79
2022/05/06 09:17:22;;;;;;;13.77;12.13;;;;;;;14.90;100.00;102545.94;4837243;29;20056;-79
2022/05/06 09:19:51;;;;;;;13.02;11.68;;;;;;;15.02;100.00;102543.41;4831319;29;20067;-78
2022/05/06 09:22:19;;;;;;;12.88;11.68;;;;;;;15.10;100.00;102539.06;4816277;29;20045;-79
2022/05/06 09:24:50;;;;;;;13.40;11.90;;;;;;;15.19;100.00;102536.53;4847776;29;20049;-78
2022/05/06 09:27:21;;;;;;;14.13;11.90;;;;;;;15.31;100.00;102529.56;4853302;29;20061;-77
2022/05/06 09:29:50;;;;;;;12.90;11.60;;;;;;;15.44;100.00;102542.09;4850088;29;20638;-78
2022/05/06 09:32:23;;;;;;;11.88;9.85;;;;;;;15.50;100.00;102544.84;4852280;29;20530;-79
2022/05/06 09:35:05;;;;;;;10.50;9.43;;;;;;;15.59;100.00;102554.63;4857867;29;20038;-78
2022/05/06 09:37:47;;;;;;;11.15;9.13;;;;;;;15.71;100.00;102553.88;4830735;29;20061;-78
2022/05/06 09:40:21;;;;;;;8.38;7.53;;;;;;;15.79;100.00;102549.56;4861998;29;20049;-79
2022/05/06 09:42:57;;;;;;;8.63;6.57;;;;;;;15.87;100.00;102539.88;4836889;29;20065;-79
2022/05/06 09:45:39;;;;;;;7.43;6.78;;;;;;;16.01;100.00;102550.63;4834686;29;20068;-78
2022/05/06 09:48:12;;;;;;;7.90;7.22;;;;;;;16.12;100.00;102545.38;4867635;29;20054;-78
2022/05/06 09:50:45;;;;;;;8.15;7.43;;;;;;;16.18;100.00;102546.31;4860306;29;20200;-79
2022/05/06 09:53:22;;;;;;;7.05;6.45;;;;;;;16.24;100.00;102548.13;4846448;29;20037;-79
2022/05/06 09:55:57;;;;;;;8.65;6.15;;;;;;;16.36;100.00;102539.34;4834403;29;20056;-79
2022/05/06 09:58:28;;;;;;;6.40;5.80;;;;;;;16.55;100.00;102537.66;4854213;29;20511;-79
2022/05/06 10:00:56;;;;;;;9.13;5.80;;;;;;;16.66;100.00;102532.41;4851488;29;20050;-78
2022/05/06 10:03:26;;;;;;;5.53;5.03;;;;;;;16.68;99.88;102538.63;4847193;29;20418;-78
2022/05/06 10:05:55;;;;;;;6.67;5.03;;;;;;;16.66;99.07;102537.72;4850940;29;20053;-77
2022/05/06 10:08:25;;;;;;;5.57;5.00;;;;;;;16.64;97.69;102543.03;4843021;29;20495;-78
2022/05/06 10:11:00;;;;;;;4.90;4.45;;;;;;;16.62;96.95;102531.50;4834600;29;20041;-78
2022/05/06 10:13:31;;;;;;;5.13;4.72;;;;;;;16.62;96.95;102533.28;4851256;29;20045;-78
2022/05/06 10:16:03;;;;;;;6.25;4.97;;;;;;;16.65;96.45;102527.94;4867167;29;20056;-78
2022/05/06 10:18:36;;;;;;;5.80;4.95;;;;;;;16.76;97.07;102534.22;4847061;29;20056;-78
2022/05/06 10:21:16;;;;;;;5.30;4.20;;;;;;;16.90;95.42;102526.31;4865256;29;20052;-78
2022/05/06 10:23:45;;;;;;;4.82;3.78;;;;;;;17.02;94.31;102523.69;4862251;29;20049;-78
2022/05/06 10:26:42;;;;;;;6.88;4.55;;;;;;;17.13;91.81;102521.06;4824288;29;24029;-78
2022/05/06 10:32:56;;;;;;;6.53;3.90;;;;;;;17.45;91.04;102507.81;4864865;29;20782;-78
2022/05/06 10:35:51;;;;;;;4.88;3.15;;;;;;;17.61;87.18;102513.13;4854326;29;20056;-77
2022/05/06 10:38:25;;;;;;;4.07;3.55;;;;;;;17.76;89.11;102505.13;4849489;29;20626;-80
2022/05/06 10:41:02;;;;;;;5.03;4.35;;;;;;;17.88;89.90;102504.28;4858635;29;20045;-78
2022/05/06 10:43:48;;;;;;;6.75;4.53;;;;;;;18.03;86.45;102500.69;4869973;29;20057;-78
2022/05/06 10:46:32;;;;;;;4.45;4.07;;;;;;;18.22;88.96;102504.22;4865245;29;20789;-79
2022/05/06 10:49:34;;;;;;;4.80;4.50;;;;;;;18.38;85.14;102483.72;4844532;29;20044;-78
2022/05/06 10:52:28;;;;;;;4.40;4.10;;;;;;;18.57;86.25;102493.44;4860482;29;20041;-79
2022/05/06 10:55:03;;;;;;;4.80;4.40;;;;;;;18.66;84.87;102489.84;4865657;29;20045;-78
2022/05/06 10:57:45;;;;;;;5.07;4.68;;;;;;;18.72;83.21;102494.28;4821960;29;20045;-78
2022/05/06 11:00:14;;;;;;;4.88;4.47;;;;;;;18.83;85.11;102484.47;4876509;29;20053;-79
2022/05/06 11:02:44;;;;;;;4.70;4.30;;;;;;;18.92;83.48;102488.84;4823918;29;20057;-80
2022/05/06 11:05:15;;;;;;;3.88;3.58;;;;;;;19.02;83.79;102485.25;4858432;29;20059;-79
2022/05/06 11:07:47;;;;;;;4.25;3.95;;;;;;;19.16;81.59;102490.50;4871846;29;20078;-78
2022/05/06 11:10:24;;;;;;;4.47;3.95;;;;;;;19.19;80.18;102491.38;4855796;29;20080;-79
2022/05/06 11:12:55;;;;;;;5.03;3.83;;;;;;;19.19;79.26;102485.16;4847762;29;20072;-79
2022/05/06 11:15:29;;;;;;;4.68;4.10;;;;;;;19.23;80.64;102487.78;4865777;29;20044;-79
2022/05/06 11:18:04;;;;;;;5.93;4.38;;;;;;;19.33;79.13;102471.69;4859737;29;20044;-79
2022/05/06 11:20:39;;;;;;;4.70;4.30;;;;;;;19.35;77.63;102476.09;4859434;29;20435;-80
2022/05/06 11:23:10;;;;;;;4.60;4.20;;;;;;;19.42;79.15;102482.31;4840647;29;20279;-80
2022/05/06 11:25:42;;;;;;;4.13;3.72;;;;;;;19.50;76.05;102484.91;4868000;29;20418;-78
2022/05/06 11:28:16;;;;;;;4.22;3.63;;;;;;;19.51;74.42;102470.63;4852194;29;20097;-79
2022/05/06 11:30:48;;;;;;;3.97;3.53;;;;;;;19.58;74.81;102472.34;4833864;29;20182;-78
2022/05/06 11:33:31;;;;;;;5.25;3.80;;;;;;;19.66;71.43;102471.41;4846722;29;20052;-78
2022/05/06 11:36:03;;;;;;;4.10;3.80;;;;;;;19.71;72.88;102471.34;4866762;29;20041;-79
2022/05/06 11:38:40;;;;;;;7.97;4.10;;;;;;;19.77;72.52;102466.00;4847334;29;20037;-77
2022/05/06 11:41:11;;;;;;;3.83;3.53;;;;;;;19.81;71.92;102475.75;4853181;29;20053;-77
2022/05/06 11:43:41;;;;;;;3.60;3.30;;;;;;;19.86;72.33;102465.88;4878780;29;20057;-79
2022/05/06 11:49:08;;;;;;;4.05;3.30;;;;;;;19.98;70.26;102469.34;4847034;29;20048;-78
2022/05/06 11:51:44;;;;;;;4.82;3.38;;;;;;;19.98;69.84;102467.56;4832050;29;20057;-77
2022/05/06 11:54:16;;;;;;;3.60;3.40;;;;;;;20.01;69.77;102456.81;4845291;29;20642;-77
2022/05/06 11:56:46;;;;;;;3.75;3.40;;;;;;;20.04;70.09;102456.78;4856601;29;20399;-78
2022/05/06 11:59:16;;;;;;;;;;;;;;;19.99;64.32;102453.28;4850800;29;20565;-77
2022/05/06 12:01:44;;;;;;;5.78;3.40;;;;;;;20.00;68.58;102454.16;4840082;29;19950;-79
2022/05/06 12:04:13;;;;;;;4.40;4.00;;;;;;;19.98;68.87;102459.53;4866004;29;20188;-79
2022/05/06 12:06:49;;;;;;;3.97;3.72;;;;;;;19.98;69.34;102448.84;4849275;29;20072;-80
2022/05/06 12:09:22;;;;;;;4.20;3.90;;;;;;;20.07;69.55;102445.16;4869555;29;20044;-78
2022/05/06 12:12:07;;;;;;;5.22;4.35;;;;;;;20.20;69.80;102449.47;4824946;29;20060;-80
2022/05/06 12:14:36;;;;;;;5.28;4.82;;;;;;;20.29;71.14;102448.47;4872613;29;20395;-80
2022/05/06 12:17:09;;;;;;;6.10;5.60;;;;;;;20.16;71.97;102450.41;4834097;29;20216;-79